Time;durP1;ratioP1;P1;durP2;ratioP2;P2;SDS_P1;SDS_P2;PMS_P1;PMS_P2;Temp;Humidity;BMP_temperature;BMP_pressure;BME280_temperature;BME280_humidity;BME280_pressure;Samples;Min_cycle;Max_cycle;Signal;HPM_P1;HPM_P2
2021/03/18 00:01:08;;;;;;;6.45;1.50;;;;;;;9.79;55.76;100984.50;4973410;28;20126;-64
2021/03/18 00:03:38;;;;;;;9.00;2.65;;;;;;;9.83;55.51;100984.63;4973169;28;20047;-64
2021/03/18 00:06:06;;;;;;;4.45;1.83;;;;;;;9.88;55.38;100982.06;4970000;28;20508;-63
2021/03/18 00:08:34;;;;;;;3.35;0.68;;;;;;;9.90;55.61;100985.66;4973383;28;20038;-64
2021/03/18 00:11:04;;;;;;;2.42;0.60;;;;;;;9.93;55.48;100980.41;4971717;28;20134;-63
2021/03/18 00:13:33;;;;;;;2.95;0.90;;;;;;;9.97;55.78;100979.66;4973256;28;20082;-64
2021/03/18 00:16:00;;;;;;;1.13;0.77;;;;;;;9.97;55.74;100974.38;4972505;28;20039;-64
2021/03/18 00:18:30;;;;;;;3.33;0.70;;;;;;;10.01;55.72;100970.94;4956672;28;20044;-66
2021/03/18 00:20:58;;;;;;;2.95;1.00;;;;;;;9.99;56.29;100964.72;4955184;28;20542;-64
2021/03/18 00:23:25;;;;;;;5.78;0.80;;;;;;;10.02;56.22;100966.56;4954252;29;20594;-64
2021/03/18 00:25:52;;;;;;;4.50;0.90;;;;;;;10.09;56.02;100966.72;4959427;28;20043;-64
2021/03/18 00:28:20;;;;;;;12.18;2.78;;;;;;;10.17;55.99;100973.09;4954241;28;20584;-64
2021/03/18 00:30:48;;;;;;;4.25;0.80;;;;;;;10.23;56.17;100962.66;4953854;28;20543;-64
2021/03/18 00:33:15;;;;;;;4.75;0.73;;;;;;;10.28;56.08;100962.72;4957827;28;20039;-64
2021/03/18 00:35:43;;;;;;;2.75;1.23;;;;;;;10.31;56.25;100962.78;4954687;28;20043;-64
2021/03/18 00:38:11;;;;;;;3.55;0.90;;;;;;;10.32;56.08;100962.81;4970420;28;20123;-64
2021/03/18 00:40:43;;;;;;;3.22;1.00;;;;;;;10.24;56.76;100971.47;4972434;28;20062;-64
2021/03/18 00:43:12;;;;;;;5.50;1.85;;;;;;;10.21;56.94;100968.75;4960631;28;20035;-64
2021/03/18 00:45:42;;;;;;;9.15;3.50;;;;;;;10.20;57.22;100972.22;4957011;28;20051;-63
2021/03/18 00:48:12;;;;;;;3.20;0.80;;;;;;;10.15;57.13;100963.31;4973461;28;20521;-64
2021/03/18 00:50:43;;;;;;;1.13;0.70;;;;;;;10.11;57.14;100966.75;4972459;28;20491;-64
2021/03/18 00:53:12;;;;;;;3.22;0.73;;;;;;;10.04;57.14;100970.13;4973305;28;20045;-63
2021/03/18 00:55:39;;;;;;;2.20;0.70;;;;;;;9.97;57.62;100975.28;4972232;28;20509;-64
2021/03/18 00:58:07;;;;;;;3.30;1.55;;;;;;;9.94;57.35;100966.38;4972511;28;20123;-64
2021/03/18 01:00:38;;;;;;;7.53;2.80;;;;;;;9.85;57.86;100963.53;4970959;28;20035;-63
2021/03/18 01:03:06;;;;;;;9.98;3.60;;;;;;;9.76;58.24;100966.88;4971201;28;20423;-63
2021/03/18 01:05:38;;;;;;;5.90;1.50;;;;;;;9.74;58.59;100958.03;4969504;28;20045;-63
2021/03/18 01:08:06;;;;;;;2.85;0.93;;;;;;;9.68;58.83;100967.56;4972852;28;20046;-63
2021/03/18 01:10:38;;;;;;;3.95;1.02;;;;;;;9.68;58.79;100967.56;4970336;28;20037;-64
2021/03/18 01:13:06;;;;;;;3.40;1.00;;;;;;;9.67;58.96;100971.06;4971169;28;20138;-63
2021/03/18 01:15:33;;;;;;;5.07;1.30;;;;;;;9.74;58.88;100972.97;4964298;28;20118;-64
2021/03/18 01:18:02;;;;;;;8.55;1.05;;;;;;;9.83;58.98;100989.91;4952305;28;20193;-63
2021/03/18 01:20:29;;;;;;;14.50;7.40;;;;;;;9.86;59.65;101000.50;4952951;28;20050;-64
2021/03/18 01:22:57;;;;;;;13.65;4.95;;;;;;;9.99;59.93;100994.63;4958248;28;20562;-64
2021/03/18 01:25:24;;;;;;;4.55;2.45;;;;;;;10.28;59.46;100982.09;4970597;28;20077;-63
2021/03/18 01:27:51;;;;;;;11.60;3.30;;;;;;;10.49;59.17;100978.09;4972155;28;20579;-63
2021/03/18 01:30:21;;;;;;;7.57;2.88;;;;;;;10.70;58.38;100973.19;4969641;28;20482;-63
2021/03/18 01:32:49;;;;;;;9.32;1.52;;;;;;;10.74;57.98;100975.06;4972105;28;20126;-63
2021/03/18 01:35:19;;;;;;;5.03;1.60;;;;;;;10.68;57.94;100980.22;4985217;28;20031;-63
2021/03/18 01:37:46;;;;;;;10.48;1.92;;;;;;;10.62;57.78;100981.00;4968608;28;20133;-64
2021/03/18 01:40:18;;;;;;;10.05;2.53;;;;;;;10.61;57.76;100980.97;4971656;28;20042;-64
2021/03/18 01:42:45;;;;;;;5.32;1.60;;;;;;;10.54;58.10;100982.59;4971115;28;20057;-64
2021/03/18 01:45:14;;;;;;;3.22;0.95;;;;;;;10.48;58.19;100979.84;4972110;28;20042;-63
2021/03/18 01:47:43;;;;;;;1.73;0.60;;;;;;;10.44;58.22;100979.72;4966639;28;20041;-64
2021/03/18 01:50:12;;;;;;;4.50;0.90;;;;;;;10.38;58.45;100989.31;4957037;28;20039;-64
2021/03/18 01:52:40;;;;;;;5.13;1.40;;;;;;;10.36;58.53;100980.50;4968358;28;20458;-63
2021/03/18 01:55:10;;;;;;;4.60;1.30;;;;;;;10.37;58.77;100981.41;4971849;28;20466;-64
2021/03/18 01:57:39;;;;;;;8.55;1.70;;;;;;;10.36;58.93;100985.78;4969751;28;20484;-64
2021/03/18 02:00:08;;;;;;;7.78;1.70;;;;;;;10.39;59.26;100984.94;4970310;28;20034;-63
2021/03/18 02:02:37;;;;;;;6.25;0.95;;;;;;;10.45;58.91;100995.59;4970790;28;20223;-63
2021/03/18 02:05:05;;;;;;;7.15;1.13;;;;;;;10.48;58.92;100990.41;4971643;28;20049;-63
2021/03/18 02:07:32;;;;;;;5.93;1.15;;;;;;;10.50;59.25;100995.72;4964282;28;20500;-63
2021/03/18 02:09:59;;;;;;;5.90;1.50;;;;;;;10.51;59.25;101003.66;4970820;28;20050;-63
2021/03/18 02:12:26;;;;;;;4.93;0.90;;;;;;;10.46;59.71;101010.59;4966746;28;20130;-64
2021/03/18 02:14:55;;;;;;;9.60;1.40;;;;;;;10.38;59.67;101002.50;4969137;28;20054;-63
2021/03/18 02:17:29;;;;;;;5.50;1.25;;;;;;;10.35;59.97;101010.38;4971814;28;20703;-63
2021/03/18 02:20:40;;;;;;;8.48;2.03;;;;;;;10.31;60.05;101002.34;4969561;28;20043;-64
2021/03/18 02:23:37;;;;;;;3.95;1.13;;;;;;;10.18;60.29;101003.84;4948088;28;20035;-63
2021/03/18 02:26:18;;;;;;;3.30;0.93;;;;;;;10.04;60.44;101013.22;4948556;28;20035;-63
2021/03/18 02:29:14;;;;;;;4.50;0.85;;;;;;;9.93;60.47;100999.78;4967364;28;20150;-63
2021/03/18 02:31:54;;;;;;;4.50;1.15;;;;;;;9.96;60.10;100998.97;4970691;28;20049;-64
2021/03/18 02:34:47;;;;;;;4.55;1.25;;;;;;;10.03;59.60;100999.97;4971389;28;20519;-63
2021/03/18 02:37:18;;;;;;;5.47;1.52;;;;;;;10.02;59.50;101007.00;4963057;28;20392;-63
2021/03/18 02:39:52;;;;;;;4.78;0.70;;;;;;;10.00;59.73;101011.34;4952412;28;20059;-63
2021/03/18 02:42:23;;;;;;;6.28;1.05;;;;;;;9.93;59.74;101009.44;4957303;28;20039;-63
2021/03/18 02:44:57;;;;;;;5.05;2.00;;;;;;;9.89;60.04;101010.22;4970326;28;20093;-63
2021/03/18 02:47:27;;;;;;;5.43;1.40;;;;;;;9.88;59.97;101013.72;4971347;28;20530;-63
2021/03/18 02:49:55;;;;;;;4.60;0.90;;;;;;;9.95;59.47;101011.25;4970339;28;20043;-63
2021/03/18 02:52:26;;;;;;;7.80;1.70;;;;;;;10.05;59.29;101014.97;4956998;28;20464;-63
2021/03/18 02:54:54;;;;;;;3.45;0.98;;;;;;;10.12;59.13;101019.50;4971958;28;20039;-63
2021/03/18 02:57:23;;;;;;;3.47;1.23;;;;;;;10.17;59.71;101011.75;4969920;28;20170;-63
2021/03/18 02:59:52;;;;;;;6.35;1.50;;;;;;;10.24;59.58;101018.94;4961843;28;20404;-64
2021/03/18 03:02:23;;;;;;;6.30;0.95;;;;;;;10.31;58.96;101019.06;4951623;28;20035;-63
2021/03/18 03:04:52;;;;;;;12.82;2.08;;;;;;;10.41;58.81;101024.56;4958732;28;20552;-63
2021/03/18 03:07:20;;;;;;;17.20;2.50;;;;;;;10.45;58.70;101021.09;4971161;28;20538;-63
2021/03/18 03:09:50;;;;;;;4.82;1.88;;;;;;;10.43;58.71;101022.84;4969209;28;20035;-63
2021/03/18 03:12:21;;;;;;;7.40;1.17;;;;;;;10.36;59.13;101021.84;4953497;28;20071;-63
2021/03/18 03:14:50;;;;;;;11.15;1.40;;;;;;;10.28;59.24;101021.66;4970764;28;20051;-63
2021/03/18 03:17:20;;;;;;;8.40;1.23;;;;;;;10.22;59.66;101013.63;4958024;28;20127;-63
2021/03/18 03:19:47;;;;;;;5.63;1.30;;;;;;;10.19;59.59;101012.66;4952450;28;20519;-63
2021/03/18 03:22:16;;;;;;;5.93;2.75;;;;;;;10.32;59.36;101012.06;4956721;28;20047;-63
2021/03/18 03:24:45;;;;;;;11.63;1.58;;;;;;;10.35;59.33;101012.13;4956677;28;20581;-63
2021/03/18 03:27:14;;;;;;;10.90;1.50;;;;;;;10.36;59.21;101017.44;4951694;28;20504;-63
2021/03/18 03:29:43;;;;;;;6.20;0.82;;;;;;;10.32;59.29;101023.50;4951182;28;20044;-63
2021/03/18 03:32:13;;;;;;;5.47;0.90;;;;;;;10.27;59.55;101038.34;4951616;28;20182;-63
2021/03/18 03:34:41;;;;;;;9.40;1.00;;;;;;;10.27;59.67;101033.06;4953936;28;20126;-63
2021/03/18 03:37:09;;;;;;;5.90;0.90;;;;;;;10.22;59.71;101023.28;4967027;28;20122;-63
2021/03/18 03:39:38;;;;;;;6.93;1.88;;;;;;;10.19;59.95;101037.28;4960670;28;20047;-63
2021/03/18 03:42:05;;;;;;;4.40;1.50;;;;;;;10.22;59.74;101042.66;4953810;28;20046;-63
2021/03/18 03:44:34;;;;;;;7.90;0.90;;;;;;;10.25;59.97;101047.97;4960578;28;20118;-63
2021/03/18 03:47:03;;;;;;;4.03;1.00;;;;;;;10.30;59.75;101054.25;4954842;28;20062;-63
2021/03/18 03:49:31;;;;;;;4.43;1.10;;;;;;;10.29;59.83;101060.41;4957945;28;20035;-63
2021/03/18 03:52:13;;;;;;;5.45;1.10;;;;;;;10.40;59.63;101060.59;4973408;28;20380;-63
2021/03/18 03:54:44;;;;;;;6.57;0.93;;;;;;;10.49;59.19;101055.53;4969113;28;20038;-64
2021/03/18 03:57:18;;;;;;;9.43;1.50;;;;;;;10.61;59.03;101054.88;4955372;28;20063;-63
2021/03/18 03:59:48;;;;;;;4.82;0.82;;;;;;;10.65;58.97;101054.97;4955512;28;20140;-63
2021/03/18 04:02:17;;;;;;;3.80;0.95;;;;;;;10.65;59.23;101054.97;4964141;28;20101;-63
2021/03/18 04:04:46;;;;;;;5.65;1.10;;;;;;;10.61;59.52;101060.16;4971790;28;20575;-63
2021/03/18 04:07:18;;;;;;;10.85;1.05;;;;;;;10.56;59.86;101075.03;4973852;28;20634;-63
2021/03/18 04:09:47;;;;;;;8.57;1.27;;;;;;;10.48;60.23;101068.69;4968048;28;20039;-63
2021/03/18 04:12:16;;;;;;;5.15;0.90;;;;;;;10.40;60.47;101071.16;4954673;28;20037;-63
2021/03/18 04:14:50;;;;;;;5.68;1.20;;;;;;;10.29;60.79;101070.94;4958432;28;20046;-63
2021/03/18 04:17:18;;;;;;;8.65;2.65;;;;;;;10.23;60.75;101078.72;4954660;28;20043;-63
2021/03/18 04:19:48;;;;;;;13.57;4.13;;;;;;;10.23;60.87;101080.47;4967707;28;20043;-64
2021/03/18 04:22:18;;;;;;;15.75;4.70;;;;;;;10.18;60.83;101079.47;4962797;28;20042;-63
2021/03/18 04:24:46;;;;;;;12.80;2.58;;;;;;;10.13;60.89;101089.88;4958882;28;20038;-63
2021/03/18 04:27:14;;;;;;;9.48;3.40;;;;;;;10.14;60.58;101093.41;4955571;28;20050;-63
2021/03/18 04:29:42;;;;;;;5.97;1.20;;;;;;;10.15;60.54;101098.72;4958844;28;20135;-63
2021/03/18 04:32:13;;;;;;;9.75;1.48;;;;;;;10.14;60.72;101096.06;4973700;28;20050;-63
2021/03/18 04:34:43;;;;;;;41.00;13.75;;;;;;;10.12;60.86;101089.84;4973178;28;20049;-63
2021/03/18 04:37:11;;;;;;;25.08;7.05;;;;;;;10.12;60.74;101093.38;4972866;28;20081;-63
2021/03/18 04:39:40;;;;;;;29.33;11.07;;;;;;;10.16;60.39;101094.34;4957945;28;20126;-63
2021/03/18 04:42:08;;;;;;;23.30;10.07;;;;;;;10.16;60.04;101100.53;4954478;28;20046;-63
2021/03/18 04:44:37;;;;;;;21.33;9.68;;;;;;;10.14;60.13;101090.78;4955948;28;20118;-64
2021/03/18 04:47:04;;;;;;;17.85;8.45;;;;;;;10.15;60.06;101098.72;4954250;28;20130;-63
2021/03/18 04:49:33;;;;;;;22.98;8.18;;;;;;;10.25;59.88;101095.47;4953605;28;20576;-63
2021/03/18 04:52:00;;;;;;;17.67;7.18;;;;;;;10.41;59.75;101098.44;4961581;28;20043;-64
2021/03/18 04:54:27;;;;;;;27.27;13.13;;;;;;;10.58;59.40;101083.84;4967042;28;20098;-64
2021/03/18 04:56:55;;;;;;;12.98;4.63;;;;;;;10.73;59.40;101092.09;4953483;28;20039;-64
2021/03/18 04:59:23;;;;;;;12.90;3.75;;;;;;;10.86;58.93;101099.41;4958935;28;20039;-63
2021/03/18 05:01:52;;;;;;;10.40;3.00;;;;;;;11.00;59.06;101104.94;4988173;28;20073;-64
2021/03/18 05:04:20;;;;;;;9.00;3.25;;;;;;;11.13;58.95;101104.31;4980211;28;20041;-63
2021/03/18 05:06:51;;;;;;;4.55;1.00;;;;;;;11.24;59.04;101115.06;4968293;28;20403;-63
2021/03/18 05:09:19;;;;;;;5.80;1.40;;;;;;;11.33;58.80;101115.25;4968891;28;20053;-63
2021/03/18 05:11:47;;;;;;;7.80;1.10;;;;;;;11.41;58.63;101119.81;4956173;28;20130;-63
2021/03/18 05:14:15;;;;;;;4.90;0.88;;;;;;;11.50;58.58;101130.53;4972877;28;20486;-63
2021/03/18 05:16:43;;;;;;;6.95;1.15;;;;;;;11.65;58.53;101137.84;4971190;28;20043;-63
2021/03/18 05:19:12;;;;;;;4.13;1.00;;;;;;;11.80;58.41;101131.97;4957646;28;20062;-63
2021/03/18 05:21:40;;;;;;;3.97;0.77;;;;;;;11.98;57.81;101129.63;4972126;28;20105;-63
2021/03/18 05:24:12;;;;;;;6.57;0.90;;;;;;;12.18;57.07;101133.47;4972671;28;20158;-63
2021/03/18 05:26:39;;;;;;;6.75;1.20;;;;;;;12.34;56.78;101138.09;4962609;28;20047;-64
2021/03/18 05:29:07;;;;;;;6.97;1.10;;;;;;;12.57;55.54;101132.25;4953249;28;20567;-64
2021/03/18 05:31:34;;;;;;;2.58;0.60;;;;;;;12.71;55.19;101138.63;4960275;28;20451;-64
2021/03/18 05:34:02;;;;;;;6.57;1.00;;;;;;;12.83;55.13;101138.75;4951156;28;20039;-64
2021/03/18 05:36:29;;;;;;;5.57;1.30;;;;;;;12.99;55.10;101146.03;4952088;28;20165;-64
2021/03/18 05:38:56;;;;;;;4.38;1.30;;;;;;;13.13;54.68;101146.22;4957480;28;20050;-64
2021/03/18 05:41:25;;;;;;;6.32;1.50;;;;;;;13.33;53.72;101139.34;4972326;28;20114;-64
2021/03/18 05:43:52;;;;;;;5.05;1.25;;;;;;;13.47;53.50;101151.00;4971378;28;20035;-64
2021/03/18 05:46:19;;;;;;;6.22;1.05;;;;;;;13.58;53.35;101151.13;4966999;28;20138;-64
2021/03/18 05:48:47;;;;;;;6.20;1.25;;;;;;;13.83;53.76;101147.81;4952544;28;20046;-64
2021/03/18 05:51:17;;;;;;;4.90;1.48;;;;;;;14.03;53.44;101160.34;4955143;28;20051;-64
2021/03/18 05:53:45;;;;;;;12.70;5.88;;;;;;;14.26;52.77;101164.06;4971882;28;20058;-64
2021/03/18 05:56:15;;;;;;;3.15;1.00;;;;;;;14.44;52.21;101164.22;4970187;28;20055;-64
2021/03/18 05:58:44;;;;;;;5.32;1.17;;;;;;;14.54;51.78;101166.06;4969764;28;20039;-64
2021/03/18 06:01:12;;;;;;;7.85;1.45;;;;;;;14.73;50.96;101159.97;4972435;28;20518;-64
2021/03/18 06:03:40;;;;;;;8.88;2.63;;;;;;;14.83;49.25;101166.22;4955603;28;20086;-65
2021/03/18 06:06:09;;;;;;;5.22;1.30;;;;;;;15.00;48.36;101179.56;4953827;28;20125;-65
2021/03/18 06:08:37;;;;;;;5.88;1.30;;;;;;;15.15;47.40;101169.91;4971290;28;20049;-65
2021/03/18 06:11:06;;;;;;;4.05;1.08;;;;;;;15.31;46.53;101167.25;4971560;28;20499;-64
2021/03/18 06:13:33;;;;;;;3.75;1.65;;;;;;;15.41;44.52;101167.31;4966764;28;21944;-64
2021/03/18 06:16:03;;;;;;;6.03;1.00;;;;;;;15.61;44.62;101169.16;4969391;28;20147;-65
2021/03/18 06:18:33;;;;;;;6.82;1.73;;;;;;;15.81;44.12;101170.06;4970810;28;20031;-64
2021/03/18 06:21:00;;;;;;;13.93;5.32;;;;;;;16.05;44.22;101174.50;4966167;28;20122;-64
2021/03/18 06:23:28;;;;;;;4.90;1.48;;;;;;;15.83;43.97;101186.91;4971569;28;20118;-64
2021/03/18 06:25:56;;;;;;;6.82;2.05;;;;;;;15.72;44.29;101181.59;4971154;28;20042;-64
2021/03/18 06:28:24;;;;;;;3.80;0.88;;;;;;;15.99;44.42;101177.16;4970893;28;20122;-63
2021/03/18 06:31:05;;;;;;;5.68;0.88;;;;;;;16.31;43.93;101181.59;4970400;28;20121;-64
2021/03/18 06:33:34;;;;;;;4.68;1.13;;;;;;;16.17;43.04;101185.16;4967936;28;20092;-64
2021/03/18 06:36:02;;;;;;;8.48;1.42;;;;;;;16.22;42.35;101199.34;4970963;28;20070;-63
2021/03/18 06:38:31;;;;;;;4.70;1.52;;;;;;;16.42;42.97;101202.88;4970668;28;20689;-65
2021/03/18 06:40:59;;;;;;;5.95;1.77;;;;;;;16.60;42.69;101213.56;4970672;28;20045;-64
2021/03/18 06:43:36;;;;;;;4.47;2.10;;;;;;;16.85;42.68;101208.16;4970576;28;20042;-64
2021/03/18 06:46:27;;;;;;;12.50;5.75;;;;;;;17.03;42.86;101209.00;4969221;28;20093;-63
2021/03/18 06:48:54;;;;;;;7.25;3.05;;;;;;;17.12;42.83;101213.41;4970154;28;20082;-64
2021/03/18 06:51:23;;;;;;;8.65;1.95;;;;;;;17.35;42.99;101205.28;4970919;28;20055;-64
2021/03/18 06:53:51;;;;;;;6.07;2.13;;;;;;;17.56;42.51;101210.53;4970422;28;20039;-64
2021/03/18 06:56:26;;;;;;;6.93;1.70;;;;;;;17.64;41.77;101215.84;4971205;28;20527;-64
2021/03/18 06:58:54;;;;;;;7.47;1.75;;;;;;;17.61;40.55;101210.53;4970289;28;20039;-64
2021/03/18 07:01:30;;;;;;;4.82;0.90;;;;;;;17.75;40.61;101216.66;4969931;28;20499;-64
2021/03/18 07:04:04;;;;;;;2.78;0.93;;;;;;;17.82;39.89;101221.97;4969227;28;20527;-64
2021/03/18 07:06:32;;;;;;;8.52;1.20;;;;;;;17.81;40.01;101228.19;4969076;28;20035;-64
2021/03/18 07:09:05;;;;;;;4.35;1.05;;;;;;;17.89;39.91;101225.47;4969850;28;20166;-64
2021/03/18 07:11:37;;;;;;;6.30;1.52;;;;;;;18.02;39.49;101227.16;4970384;28;20074;-64
2021/03/18 07:14:04;;;;;;;7.03;1.85;;;;;;;18.14;39.30;101224.38;4970019;28;20038;-64
2021/03/18 07:16:41;;;;;;;5.88;1.85;;;;;;;18.32;39.71;101220.66;4973806;28;20031;-64
2021/03/18 07:19:09;;;;;;;7.93;1.40;;;;;;;18.41;39.52;101231.28;4974409;28;20130;-64
2021/03/18 07:21:39;;;;;;;6.20;1.48;;;;;;;18.42;39.31;101227.72;4969749;28;20070;-64
2021/03/18 07:24:23;;;;;;;7.97;2.25;;;;;;;18.54;38.80;101232.94;4974272;28;20035;-64
2021/03/18 07:26:50;;;;;;;7.00;2.35;;;;;;;18.56;39.12;101231.19;4974389;28;20514;-64
2021/03/18 07:29:20;;;;;;;7.63;2.05;;;;;;;18.68;39.08;101240.88;4987104;28;20130;-64
2021/03/18 07:31:49;;;;;;;7.53;1.58;;;;;;;18.77;39.41;101240.81;4967618;28;20055;-64
2021/03/18 07:34:17;;;;;;;6.95;1.65;;;;;;;18.99;39.31;101238.75;4967410;28;20043;-64
2021/03/18 07:36:45;;;;;;;4.78;1.42;;;;;;;18.99;38.69;101245.00;4965930;28;20051;-63
2021/03/18 07:39:14;;;;;;;5.18;1.60;;;;;;;18.87;38.57;101246.91;4937058;28;20039;-63
2021/03/18 07:41:46;;;;;;;4.72;0.85;;;;;;;18.74;38.52;101250.63;4950679;29;20044;-64
2021/03/18 07:44:16;;;;;;;6.57;1.20;;;;;;;18.73;38.78;101249.75;4953321;29;20066;-64
2021/03/18 07:46:46;;;;;;;6.18;1.83;;;;;;;18.77;38.78;101247.94;4955726;28;20626;-63
2021/03/18 07:49:16;;;;;;;7.35;1.85;;;;;;;18.96;38.86;101252.19;4954608;29;20089;-63
2021/03/18 07:51:46;;;;;;;5.47;1.67;;;;;;;19.19;38.61;101241.19;4953414;29;20051;-63
2021/03/18 07:54:17;;;;;;;5.40;1.88;;;;;;;19.28;38.46;101249.13;4954271;29;20040;-63
2021/03/18 07:56:48;;;;;;;6.70;1.60;;;;;;;19.44;38.44;101245.34;4953778;29;20043;-63
2021/03/18 07:59:18;;;;;;;7.35;1.65;;;;;;;19.66;37.98;101262.06;4954241;29;20035;-64
2021/03/18 08:01:45;;;;;;;6.07;2.10;;;;;;;19.70;37.50;101239.66;4954044;29;20570;-63
2021/03/18 08:04:15;;;;;;;8.82;1.45;;;;;;;19.79;36.84;101252.94;4954683;29;20127;-64
2021/03/18 08:06:54;;;;;;;8.38;2.28;;;;;;;19.76;37.02;101237.78;4952932;29;20585;-63
2021/03/18 08:09:49;;;;;;;10.75;2.25;;;;;;;19.99;36.50;101241.91;4946445;29;20036;-63
2021/03/18 08:12:17;;;;;;;6.70;1.58;;;;;;;20.05;36.39;101240.03;4951362;28;20097;-63
2021/03/18 08:14:44;;;;;;;4.85;2.20;;;;;;;20.25;36.81;101235.22;4952472;29;20444;-63
2021/03/18 08:17:29;;;;;;;5.43;1.42;;;;;;;20.49;36.59;101228.59;4952891;29;20066;-64
2021/03/18 08:19:58;;;;;;;4.38;1.63;;;;;;;20.50;36.80;101232.16;4953638;29;20047;-63
2021/03/18 08:22:30;;;;;;;6.95;1.63;;;;;;;20.52;36.41;101233.91;4953887;29;20397;-64
2021/03/18 08:25:21;;;;;;;6.55;1.67;;;;;;;20.55;35.50;101236.53;4946077;28;20119;-64
2021/03/18 08:27:48;;;;;;;4.95;1.00;;;;;;;20.42;35.02;101232.28;4952375;28;20039;-64
2021/03/18 08:30:24;;;;;;;5.70;1.38;;;;;;;20.24;34.30;101221.84;4953978;29;20042;-64
2021/03/18 08:32:51;;;;;;;5.78;1.20;;;;;;;20.40;34.69;101223.41;4953172;29;20040;-64
2021/03/18 08:35:31;;;;;;;6.53;1.10;;;;;;;20.49;34.25;101231.28;4950702;28;20441;-64
2021/03/18 08:38:15;;;;;;;4.78;1.33;;;;;;;20.53;34.12;101219.59;4964936;28;20440;-63
2021/03/18 08:41:00;;;;;;;3.72;1.40;;;;;;;20.71;33.69;101229.09;4970679;28;20081;-64
2021/03/18 08:43:27;;;;;;;4.50;1.08;;;;;;;20.81;33.51;101224.41;4964034;28;20059;-64
2021/03/18 08:45:54;;;;;;;3.25;1.10;;;;;;;20.83;32.75;101225.28;4963004;28;20057;-64
2021/03/18 08:48:22;;;;;;;2.83;0.88;;;;;;;20.73;32.40;101234.44;4962647;28;20043;-63
2021/03/18 08:51:03;;;;;;;6.40;1.70;;;;;;;20.74;32.01;101230.84;4967174;28;20479;-64
2021/03/18 08:53:39;;;;;;;2.97;0.70;;;;;;;20.86;32.29;101235.97;4964273;28;20089;-63
2021/03/18 08:56:07;;;;;;;6.38;0.88;;;;;;;21.02;32.37;101241.00;4964871;28;20462;-64
2021/03/18 08:58:55;;;;;;;3.80;1.00;;;;;;;21.12;31.69;101243.53;4967023;28;20098;-64
2021/03/18 09:01:24;;;;;;;5.53;0.77;;;;;;;21.06;32.02;101244.53;4969152;28;20031;-64
2021/03/18 09:04:00;;;;;;;7.50;1.77;;;;;;;21.16;30.99;101246.13;4962103;28;20057;-63
2021/03/18 09:06:33;;;;;;;4.45;0.80;;;;;;;21.07;30.25;101236.44;4965423;28;20182;-64
2021/03/18 09:09:01;;;;;;;3.53;0.57;;;;;;;21.08;29.95;101237.31;4965989;28;20162;-64
2021/03/18 09:11:28;;;;;;;5.68;0.80;;;;;;;20.90;29.77;101251.09;4964229;28;20057;-64
2021/03/18 09:13:56;;;;;;;4.00;0.80;;;;;;;20.96;30.12;101243.81;4964536;28;20113;-64
2021/03/18 09:16:24;;;;;;;5.00;0.73;;;;;;;21.30;29.18;101236.00;4963028;28;20428;-64
2021/03/18 09:19:01;;;;;;;3.22;1.08;;;;;;;21.59;29.67;101235.41;4964192;28;20039;-64
2021/03/18 09:21:38;;;;;;;5.50;1.20;;;;;;;21.84;29.55;101238.41;4962710;28;20039;-64
2021/03/18 09:24:08;;;;;;;5.28;0.88;;;;;;;21.58;29.17;101239.00;4963880;28;20046;-64
2021/03/18 09:26:36;;;;;;;5.32;0.82;;;;;;;20.90;30.54;101240.38;4992478;28;20043;-64
2021/03/18 09:29:03;;;;;;;4.15;1.02;;;;;;;20.86;30.54;101241.34;4966011;28;20563;-64
2021/03/18 09:31:31;;;;;;;8.00;1.20;;;;;;;20.87;30.82;101237.75;4963349;28;20038;-64
2021/03/18 09:33:59;;;;;;;4.47;0.85;;;;;;;21.09;31.58;101237.28;4965403;28;20055;-64
2021/03/18 09:36:28;;;;;;;5.78;1.45;;;;;;;21.28;31.21;101245.00;4969557;28;20097;-65
2021/03/18 09:38:58;;;;;;;6.57;1.60;;;;;;;21.29;31.21;101244.09;4962983;28;20130;-64
2021/03/18 09:41:27;;;;;;;9.00;1.08;;;;;;;21.37;31.45;101248.41;4966155;28;20500;-64
2021/03/18 09:44:07;;;;;;;6.82;1.00;;;;;;;21.51;32.20;101252.59;4962307;28;20035;-64
2021/03/18 09:46:35;;;;;;;5.43;1.00;;;;;;;21.66;31.43;101263.00;4963029;28;20035;-64
2021/03/18 09:49:03;;;;;;;5.18;0.90;;;;;;;21.63;31.48;101263.97;4961478;28;20416;-64
2021/03/18 09:51:35;;;;;;;4.22;1.10;;;;;;;21.59;31.49;101258.69;4962668;28;20554;-65
2021/03/18 09:54:06;;;;;;;6.03;1.10;;;;;;;21.84;32.01;101244.66;4964156;28;20045;-64
2021/03/18 09:56:36;;;;;;;6.43;1.40;;;;;;;22.03;31.87;101257.72;4961909;28;20039;-64
2021/03/18 09:59:05;;;;;;;6.47;1.88;;;;;;;22.00;32.46;101258.66;4967371;28;20393;-64
2021/03/18 10:01:32;;;;;;;5.35;0.90;;;;;;;22.03;32.50;101255.91;4961711;28;20055;-64
2021/03/18 10:04:01;;;;;;;5.00;1.10;;;;;;;21.38;32.92;101251.97;4958186;28;20444;-64
2021/03/18 10:06:30;;;;;;;4.97;0.85;;;;;;;21.17;32.91;101253.28;4963123;28;20047;-63
2021/03/18 10:09:17;;;;;;;4.47;0.95;;;;;;;20.96;32.26;101267.09;4961717;28;20545;-64
2021/03/18 10:11:45;;;;;;;7.07;1.20;;;;;;;21.09;32.54;101274.88;4962183;28;20177;-64
2021/03/18 10:14:13;;;;;;;7.75;1.25;;;;;;;21.19;32.07;101258.63;4963386;28;20053;-65
2021/03/18 10:16:41;;;;;;;4.80;1.10;;;;;;;20.68;31.34;101269.38;4962803;28;22111;-64
2021/03/18 10:19:10;;;;;;;4.82;0.90;;;;;;;20.48;31.10;101260.84;4964751;28;20058;-64
2021/03/18 10:21:38;;;;;;;8.88;1.60;;;;;;;20.54;30.40;101268.78;4968153;28;20743;-65
2021/03/18 10:24:06;;;;;;;44.30;21.23;;;;;;;20.79;30.48;101274.59;4960914;28;20038;-64
2021/03/18 10:26:36;;;;;;;18.05;7.15;;;;;;;20.95;29.29;101262.63;4960501;28;20038;-64
2021/03/18 10:29:05;;;;;;;6.85;2.95;;;;;;;21.15;28.43;101265.81;4960422;28;20039;-64
2021/03/18 10:31:32;;;;;;;9.52;2.65;;;;;;;21.01;27.72;101252.66;4955191;28;20057;-64
2021/03/18 10:34:00;;;;;;;8.40;2.70;;;;;;;21.01;28.59;101251.78;4958402;28;20039;-64
2021/03/18 10:36:35;;;;;;;8.70;1.92;;;;;;;21.28;28.44;101251.25;4962587;28;20043;-64
2021/03/18 10:39:06;;;;;;;5.55;1.23;;;;;;;21.27;28.35;101249.47;4959931;28;20113;-64
2021/03/18 10:41:35;;;;;;;5.50;1.60;;;;;;;21.34;28.99;101245.75;4961673;28;20043;-65
2021/03/18 10:44:02;;;;;;;5.30;1.02;;;;;;;21.43;28.84;101259.00;4961795;28;20046;-65
2021/03/18 10:46:33;;;;;;;3.13;1.00;;;;;;;21.41;28.61;101252.78;4961953;28;20657;-64
2021/03/18 10:49:04;;;;;;;1.80;0.80;;;;;;;21.40;28.28;101253.69;4959793;28;20045;-64
2021/03/18 10:51:32;;;;;;;5.28;1.17;;;;;;;21.38;27.70;101251.97;4955835;28;20043;-65
2021/03/18 10:53:59;;;;;;;5.53;1.45;;;;;;;21.58;28.24;101256.91;4955990;28;20118;-66
2021/03/18 10:56:28;;;;;;;2.55;0.50;;;;;;;21.69;28.08;101257.56;4956189;28;20093;-64
2021/03/18 10:58:56;;;;;;;6.20;0.70;;;;;;;21.64;28.27;101246.91;4961770;28;20038;-64
2021/03/18 11:01:25;;;;;;;5.72;1.02;;;;;;;21.64;28.90;101259.47;4969083;28;20549;-64
2021/03/18 11:04:01;;;;;;;4.70;1.20;;;;;;;21.69;28.73;101268.31;4951436;28;20053;-65
2021/03/18 11:06:28;;;;;;;3.28;0.70;;;;;;;21.58;28.29;101259.59;4968931;28;20047;-65
2021/03/18 11:08:57;;;;;;;3.45;0.82;;;;;;;21.21;27.79;101249.63;4967127;28;20549;-64
2021/03/18 11:11:25;;;;;;;8.88;1.85;;;;;;;21.07;28.32;101265.06;4971181;28;20481;-65
2021/03/18 11:13:53;;;;;;;5.85;1.02;;;;;;;21.04;28.62;101251.72;4967519;28;20121;-64
2021/03/18 11:16:22;;;;;;;9.07;2.58;;;;;;;21.02;28.85;101256.22;4969781;28;20125;-64
2021/03/18 11:18:51;;;;;;;5.88;1.27;;;;;;;20.95;28.83;101254.56;4969587;28;20139;-65
2021/03/18 11:21:24;;;;;;;5.63;0.90;;;;;;;21.15;29.00;101246.13;4969495;28;20039;-64
2021/03/18 11:23:53;;;;;;;3.75;1.02;;;;;;;21.37;29.45;101248.41;4963786;28;20047;-64
2021/03/18 11:26:23;;;;;;;5.07;1.15;;;;;;;21.38;29.63;101258.22;4968799;28;20037;-65
2021/03/18 11:28:53;;;;;;;6.70;0.90;;;;;;;21.55;29.54;101246.22;4966885;28;20126;-64
2021/03/18 11:31:22;;;;;;;4.32;0.70;;;;;;;21.61;29.83;101256.84;4964476;28;20122;-64
2021/03/18 11:33:49;;;;;;;3.83;0.77;;;;;;;21.82;29.80;101242.91;4966524;28;20049;-64
2021/03/18 11:36:17;;;;;;;8.73;0.98;;;;;;;21.92;29.54;101239.13;4962384;28;20041;-65
2021/03/18 11:38:45;;;;;;;7.50;1.65;;;;;;;22.13;29.71;101227.84;4967428;28;20130;-64